sensor_id;sensor_type;location;lat;lon;timestamp;P1;durP1;ratioP1;P2;durP2;ratioP2
35847;SDS011;22332;51.954;20.118;2022-08-25T00:00:24;5.80;;;3.10;;
35847;SDS011;22332;51.954;20.118;2022-08-25T00:03:43;6.00;;;2.50;;
35847;SDS011;22332;51.954;20.118;2022-08-25T00:06:49;3.70;;;3.00;;
35847;SDS011;22332;51.954;20.118;2022-08-25T00:09:57;6.10;;;2.90;;
35847;SDS011;22332;51.954;20.118;2022-08-25T00:13:03;6.20;;;3.20;;
35847;SDS011;22332;51.954;20.118;2022-08-25T00:16:09;4.40;;;2.50;;
35847;SDS011;22332;51.954;20.118;2022-08-25T00:19:17;7.60;;;2.80;;
35847;SDS011;22332;51.954;20.118;2022-08-25T00:22:25;6.10;;;3.00;;
35847;SDS011;22332;51.954;20.118;2022-08-25T00:25:31;5.30;;;2.50;;
35847;SDS011;22332;51.954;20.118;2022-08-25T00:28:37;3.30;;;2.50;;
35847;SDS011;22332;51.954;20.118;2022-08-25T00:31:42;5.50;;;2.70;;
35847;SDS011;22332;51.954;20.118;2022-08-25T00:34:49;4.30;;;2.90;;
35847;SDS011;22332;51.954;20.118;2022-08-25T00:37:54;4.80;;;2.80;;
35847;SDS011;22332;51.954;20.118;2022-08-25T00:41:00;4.80;;;2.60;;
35847;SDS011;22332;51.954;20.118;2022-08-25T00:44:09;5.40;;;2.50;;
35847;SDS011;22332;51.954;20.118;2022-08-25T00:47:19;4.20;;;3.00;;
35847;SDS011;22332;51.954;20.118;2022-08-25T00:50:24;5.50;;;2.90;;
35847;SDS011;22332;51.954;20.118;2022-08-25T00:53:30;4.90;;;3.00;;
35847;SDS011;22332;51.954;20.118;2022-08-25T00:56:36;5.80;;;3.30;;
35847;SDS011;22332;51.954;20.118;2022-08-25T00:59:42;5.20;;;3.00;;
35847;SDS011;22332;51.954;20.118;2022-08-25T01:02:48;6.20;;;3.00;;
35847;SDS011;22332;51.954;20.118;2022-08-25T01:05:53;4.20;;;3.00;;
35847;SDS011;22332;51.954;20.118;2022-08-25T01:08:59;5.30;;;3.50;;
35847;SDS011;22332;51.954;20.118;2022-08-25T01:12:05;6.90;;;3.00;;
35847;SDS011;22332;51.954;20.118;2022-08-25T01:15:12;3.60;;;2.50;;
35847;SDS011;22332;51.954;20.118;2022-08-25T01:18:18;5.10;;;2.80;;
35847;SDS011;22332;51.954;20.118;2022-08-25T01:21:24;7.10;;;3.00;;
35847;SDS011;22332;51.954;20.118;2022-08-25T01:24:34;5.10;;;3.20;;
35847;SDS011;22332;51.954;20.118;2022-08-25T01:27:44;4.60;;;2.60;;
35847;SDS011;22332;51.954;20.118;2022-08-25T01:30:50;5.10;;;2.90;;
35847;SDS011;22332;51.954;20.118;2022-08-25T01:33:56;3.70;;;2.60;;
35847;SDS011;22332;51.954;20.118;2022-08-25T01:37:02;5.50;;;3.10;;
35847;SDS011;22332;51.954;20.118;2022-08-25T01:40:09;4.70;;;2.90;;
35847;SDS011;22332;51.954;20.118;2022-08-25T01:43:34;7.00;;;3.40;;
35847;SDS011;22332;51.954;20.118;2022-08-25T01:46:41;6.80;;;2.90;;
35847;SDS011;22332;51.954;20.118;2022-08-25T01:49:46;4.50;;;2.60;;
35847;SDS011;22332;51.954;20.118;2022-08-25T01:52:53;5.20;;;2.80;;
35847;SDS011;22332;51.954;20.118;2022-08-25T01:56:10;8.30;;;3.20;;
35847;SDS011;22332;51.954;20.118;2022-08-25T01:59:17;3.70;;;2.60;;
35847;SDS011;22332;51.954;20.118;2022-08-25T02:02:25;6.10;;;2.70;;
35847;SDS011;22332;51.954;20.118;2022-08-25T02:05:30;4.10;;;3.10;;
35847;SDS011;22332;51.954;20.118;2022-08-25T02:08:36;4.50;;;2.70;;
35847;SDS011;22332;51.954;20.118;2022-08-25T02:11:42;6.00;;;3.20;;
35847;SDS011;22332;51.954;20.118;2022-08-25T02:14:49;3.60;;;2.60;;
35847;SDS011;22332;51.954;20.118;2022-08-25T02:17:54;6.30;;;2.90;;
35847;SDS011;22332;51.954;20.118;2022-08-25T02:21:00;6.40;;;3.00;;
35847;SDS011;22332;51.954;20.118;2022-08-25T02:24:05;5.20;;;3.00;;
35847;SDS011;22332;51.954;20.118;2022-08-25T02:27:11;7.40;;;3.50;;
35847;SDS011;22332;51.954;20.118;2022-08-25T02:30:16;8.50;;;3.30;;
35847;SDS011;22332;51.954;20.118;2022-08-25T02:33:22;6.20;;;2.90;;
35847;SDS011;22332;51.954;20.118;2022-08-25T02:36:27;8.20;;;3.30;;
35847;SDS011;22332;51.954;20.118;2022-08-25T02:39:33;4.20;;;2.60;;
35847;SDS011;22332;51.954;20.118;2022-08-25T02:42:39;3.90;;;2.70;;
35847;SDS011;22332;51.954;20.118;2022-08-25T02:45:44;6.40;;;2.70;;
35847;SDS011;22332;51.954;20.118;2022-08-25T02:48:50;5.80;;;2.50;;
35847;SDS011;22332;51.954;20.118;2022-08-25T02:51:56;4.80;;;3.10;;
35847;SDS011;22332;51.954;20.118;2022-08-25T02:55:03;4.40;;;2.80;;
35847;SDS011;22332;51.954;20.118;2022-08-25T02:58:11;4.90;;;3.00;;
35847;SDS011;22332;51.954;20.118;2022-08-25T03:01:17;4.80;;;2.80;;
35847;SDS011;22332;51.954;20.118;2022-08-25T03:04:22;10.00;;;3.00;;
35847;SDS011;22332;51.954;20.118;2022-08-25T03:07:28;6.00;;;2.80;;
35847;SDS011;22332;51.954;20.118;2022-08-25T03:10:34;5.30;;;2.80;;
35847;SDS011;22332;51.954;20.118;2022-08-25T03:13:39;6.70;;;3.10;;
35847;SDS011;22332;51.954;20.118;2022-08-25T03:16:45;5.50;;;2.70;;
35847;SDS011;22332;51.954;20.118;2022-08-25T03:19:50;5.00;;;2.80;;
35847;SDS011;22332;51.954;20.118;2022-08-25T03:22:56;6.40;;;2.70;;
35847;SDS011;22332;51.954;20.118;2022-08-25T03:26:01;3.60;;;2.60;;
35847;SDS011;22332;51.954;20.118;2022-08-25T03:29:26;3.30;;;3.00;;
35847;SDS011;22332;51.954;20.118;2022-08-25T03:32:33;4.40;;;3.00;;
35847;SDS011;22332;51.954;20.118;2022-08-25T03:35:40;7.00;;;2.90;;
35847;SDS011;22332;51.954;20.118;2022-08-25T03:38:45;4.00;;;2.90;;
35847;SDS011;22332;51.954;20.118;2022-08-25T03:41:51;3.90;;;3.30;;
35847;SDS011;22332;51.954;20.118;2022-08-25T03:44:57;4.80;;;3.20;;
35847;SDS011;22332;51.954;20.118;2022-08-25T03:48:04;6.40;;;3.20;;
35847;SDS011;22332;51.954;20.118;2022-08-25T03:51:10;4.70;;;2.60;;
35847;SDS011;22332;51.954;20.118;2022-08-25T03:54:21;5.20;;;3.00;;
35847;SDS011;22332;51.954;20.118;2022-08-25T03:57:28;10.00;;;4.00;;
35847;SDS011;22332;51.954;20.118;2022-08-25T04:00:34;5.30;;;3.10;;
35847;SDS011;22332;51.954;20.118;2022-08-25T04:03:39;5.70;;;3.10;;
35847;SDS011;22332;51.954;20.118;2022-08-25T04:06:45;5.20;;;2.90;;
35847;SDS011;22332;51.954;20.118;2022-08-25T04:09:52;5.80;;;2.90;;
35847;SDS011;22332;51.954;20.118;2022-08-25T04:12:58;7.20;;;3.40;;
35847;SDS011;22332;51.954;20.118;2022-08-25T04:16:08;7.80;;;3.40;;
35847;SDS011;22332;51.954;20.118;2022-08-25T04:22:19;7.50;;;3.00;;
35847;SDS011;22332;51.954;20.118;2022-08-25T04:25:24;10.20;;;4.20;;
35847;SDS011;22332;51.954;20.118;2022-08-25T04:28:30;8.30;;;4.00;;
35847;SDS011;22332;51.954;20.118;2022-08-25T04:31:37;7.50;;;3.50;;
35847;SDS011;22332;51.954;20.118;2022-08-25T04:34:43;10.10;;;4.00;;
35847;SDS011;22332;51.954;20.118;2022-08-25T04:37:50;11.50;;;4.50;;
35847;SDS011;22332;51.954;20.118;2022-08-25T04:40:56;8.10;;;4.00;;
35847;SDS011;22332;51.954;20.118;2022-08-25T04:44:03;10.00;;;4.10;;
35847;SDS011;22332;51.954;20.118;2022-08-25T04:47:09;8.60;;;3.90;;
35847;SDS011;22332;51.954;20.118;2022-08-25T04:50:15;8.40;;;4.30;;
35847;SDS011;22332;51.954;20.118;2022-08-25T04:53:20;8.10;;;4.60;;
35847;SDS011;22332;51.954;20.118;2022-08-25T04:56:25;10.80;;;4.10;;
35847;SDS011;22332;51.954;20.118;2022-08-25T04:59:32;6.80;;;3.70;;
35847;SDS011;22332;51.954;20.118;2022-08-25T05:02:37;7.80;;;4.10;;
35847;SDS011;22332;51.954;20.118;2022-08-25T05:05:42;9.50;;;4.20;;
35847;SDS011;22332;51.954;20.118;2022-08-25T05:08:48;13.00;;;4.50;;
35847;SDS011;22332;51.954;20.118;2022-08-25T05:11:54;8.40;;;3.80;;
35847;SDS011;22332;51.954;20.118;2022-08-25T05:14:59;9.00;;;3.80;;
35847;SDS011;22332;51.954;20.118;2022-08-25T05:18:25;10.70;;;4.30;;
35847;SDS011;22332;51.954;20.118;2022-08-25T05:21:32;9.40;;;4.20;;
35847;SDS011;22332;51.954;20.118;2022-08-25T05:24:38;10.00;;;4.40;;
35847;SDS011;22332;51.954;20.118;2022-08-25T05:27:44;7.80;;;3.60;;
35847;SDS011;22332;51.954;20.118;2022-08-25T05:30:49;9.00;;;4.10;;
35847;SDS011;22332;51.954;20.118;2022-08-25T05:34:02;8.20;;;4.00;;
35847;SDS011;22332;51.954;20.118;2022-08-25T05:37:10;7.00;;;4.10;;
35847;SDS011;22332;51.954;20.118;2022-08-25T05:40:15;7.20;;;4.10;;
35847;SDS011;22332;51.954;20.118;2022-08-25T05:43:20;9.00;;;4.30;;
35847;SDS011;22332;51.954;20.118;2022-08-25T05:46:26;9.60;;;4.40;;
35847;SDS011;22332;51.954;20.118;2022-08-25T05:49:32;11.10;;;3.90;;
35847;SDS011;22332;51.954;20.118;2022-08-25T05:52:37;8.00;;;4.20;;
35847;SDS011;22332;51.954;20.118;2022-08-25T05:55:44;7.90;;;3.90;;
35847;SDS011;22332;51.954;20.118;2022-08-25T05:58:49;9.40;;;4.40;;
35847;SDS011;22332;51.954;20.118;2022-08-25T06:01:55;8.20;;;4.10;;
35847;SDS011;22332;51.954;20.118;2022-08-25T06:05:19;7.70;;;3.60;;
35847;SDS011;22332;51.954;20.118;2022-08-25T06:08:25;8.80;;;4.60;;
35847;SDS011;22332;51.954;20.118;2022-08-25T06:11:33;7.70;;;4.30;;
35847;SDS011;22332;51.954;20.118;2022-08-25T06:14:41;10.40;;;4.60;;
35847;SDS011;22332;51.954;20.118;2022-08-25T06:17:47;9.20;;;4.30;;
35847;SDS011;22332;51.954;20.118;2022-08-25T06:20:53;9.50;;;4.10;;
35847;SDS011;22332;51.954;20.118;2022-08-25T06:23:58;7.40;;;4.00;;
35847;SDS011;22332;51.954;20.118;2022-08-25T06:27:04;11.10;;;5.00;;
35847;SDS011;22332;51.954;20.118;2022-08-25T06:30:11;9.20;;;4.30;;
35847;SDS011;22332;51.954;20.118;2022-08-25T06:33:18;12.20;;;4.70;;
35847;SDS011;22332;51.954;20.118;2022-08-25T06:36:23;8.10;;;4.60;;
35847;SDS011;22332;51.954;20.118;2022-08-25T06:39:28;7.50;;;4.10;;
35847;SDS011;22332;51.954;20.118;2022-08-25T06:42:34;12.00;;;4.90;;
35847;SDS011;22332;51.954;20.118;2022-08-25T06:45:39;10.20;;;5.10;;
35847;SDS011;22332;51.954;20.118;2022-08-25T06:48:45;9.90;;;4.60;;
35847;SDS011;22332;51.954;20.118;2022-08-25T06:51:51;9.50;;;4.90;;
35847;SDS011;22332;51.954;20.118;2022-08-25T06:54:57;10.40;;;4.40;;
35847;SDS011;22332;51.954;20.118;2022-08-25T06:58:03;10.30;;;5.20;;
35847;SDS011;22332;51.954;20.118;2022-08-25T07:01:09;9.60;;;4.90;;
35847;SDS011;22332;51.954;20.118;2022-08-25T07:04:16;10.90;;;5.00;;
35847;SDS011;22332;51.954;20.118;2022-08-25T07:07:22;10.60;;;4.60;;
35847;SDS011;22332;51.954;20.118;2022-08-25T07:10:27;7.80;;;4.50;;
35847;SDS011;22332;51.954;20.118;2022-08-25T07:13:33;10.70;;;5.30;;
35847;SDS011;22332;51.954;20.118;2022-08-25T07:16:39;15.90;;;5.80;;
35847;SDS011;22332;51.954;20.118;2022-08-25T07:19:45;10.50;;;4.60;;
35847;SDS011;22332;51.954;20.118;2022-08-25T07:22:51;11.40;;;5.30;;
35847;SDS011;22332;51.954;20.118;2022-08-25T07:26:05;14.30;;;5.40;;
35847;SDS011;22332;51.954;20.118;2022-08-25T07:29:13;14.70;;;5.60;;
35847;SDS011;22332;51.954;20.118;2022-08-25T07:32:20;10.60;;;5.10;;
35847;SDS011;22332;51.954;20.118;2022-08-25T07:35:25;13.30;;;5.50;;
35847;SDS011;22332;51.954;20.118;2022-08-25T07:38:33;11.50;;;5.20;;
35847;SDS011;22332;51.954;20.118;2022-08-25T07:41:39;8.80;;;4.70;;
35847;SDS011;22332;51.954;20.118;2022-08-25T07:44:45;12.40;;;5.40;;
35847;SDS011;22332;51.954;20.118;2022-08-25T07:47:51;11.00;;;5.50;;
35847;SDS011;22332;51.954;20.118;2022-08-25T07:50:56;13.90;;;5.90;;
35847;SDS011;22332;51.954;20.118;2022-08-25T07:54:03;16.80;;;6.10;;
35847;SDS011;22332;51.954;20.118;2022-08-25T07:57:09;13.30;;;5.40;;
35847;SDS011;22332;51.954;20.118;2022-08-25T08:00:15;12.70;;;5.60;;
35847;SDS011;22332;51.954;20.118;2022-08-25T08:03:20;10.40;;;5.80;;
35847;SDS011;22332;51.954;20.118;2022-08-25T08:06:25;14.90;;;5.90;;
35847;SDS011;22332;51.954;20.118;2022-08-25T08:09:31;14.20;;;6.20;;
35847;SDS011;22332;51.954;20.118;2022-08-25T08:12:36;9.50;;;5.40;;
35847;SDS011;22332;51.954;20.118;2022-08-25T08:15:42;12.00;;;5.60;;
35847;SDS011;22332;51.954;20.118;2022-08-25T08:18:48;12.40;;;5.60;;
35847;SDS011;22332;51.954;20.118;2022-08-25T08:21:54;11.90;;;5.60;;
35847;SDS011;22332;51.954;20.118;2022-08-25T08:24:59;11.30;;;5.60;;
35847;SDS011;22332;51.954;20.118;2022-08-25T08:28:04;12.20;;;5.60;;
35847;SDS011;22332;51.954;20.118;2022-08-25T08:31:10;13.00;;;6.20;;
35847;SDS011;22332;51.954;20.118;2022-08-25T08:34:17;13.50;;;5.50;;
35847;SDS011;22332;51.954;20.118;2022-08-25T08:37:24;16.80;;;5.90;;
35847;SDS011;22332;51.954;20.118;2022-08-25T08:40:40;13.60;;;6.00;;
35847;SDS011;22332;51.954;20.118;2022-08-25T08:44:21;17.30;;;6.80;;
35847;SDS011;22332;51.954;20.118;2022-08-25T08:47:35;11.90;;;6.60;;
35847;SDS011;22332;51.954;20.118;2022-08-25T08:50:54;13.60;;;5.90;;
35847;SDS011;22332;51.954;20.118;2022-08-25T08:54:12;14.70;;;5.80;;
35847;SDS011;22332;51.954;20.118;2022-08-25T08:57:23;16.60;;;6.20;;
35847;SDS011;22332;51.954;20.118;2022-08-25T09:00:31;13.80;;;6.50;;
35847;SDS011;22332;51.954;20.118;2022-08-25T09:03:42;9.90;;;6.00;;
35847;SDS011;22332;51.954;20.118;2022-08-25T09:06:51;14.80;;;7.10;;
35847;SDS011;22332;51.954;20.118;2022-08-25T09:09:57;15.80;;;6.80;;
35847;SDS011;22332;51.954;20.118;2022-08-25T09:13:04;13.60;;;6.20;;
35847;SDS011;22332;51.954;20.118;2022-08-25T09:16:19;13.00;;;6.10;;
35847;SDS011;22332;51.954;20.118;2022-08-25T09:23:27;11.00;;;5.80;;
35847;SDS011;22332;51.954;20.118;2022-08-25T09:26:44;12.40;;;5.80;;
35847;SDS011;22332;51.954;20.118;2022-08-25T09:30:00;11.60;;;5.40;;
35847;SDS011;22332;51.954;20.118;2022-08-25T09:33:08;11.70;;;6.00;;
35847;SDS011;22332;51.954;20.118;2022-08-25T09:36:17;16.10;;;6.10;;
35847;SDS011;22332;51.954;20.118;2022-08-25T09:39:23;13.30;;;6.00;;
35847;SDS011;22332;51.954;20.118;2022-08-25T09:42:48;12.30;;;6.30;;
35847;SDS011;22332;51.954;20.118;2022-08-25T09:45:57;15.80;;;6.50;;
35847;SDS011;22332;51.954;20.118;2022-08-25T09:49:10;14.60;;;6.20;;
35847;SDS011;22332;51.954;20.118;2022-08-25T09:52:32;16.00;;;6.70;;
35847;SDS011;22332;51.954;20.118;2022-08-25T09:55:40;14.30;;;6.20;;
35847;SDS011;22332;51.954;20.118;2022-08-25T09:58:49;16.50;;;6.20;;
35847;SDS011;22332;51.954;20.118;2022-08-25T10:01:55;14.70;;;6.40;;
35847;SDS011;22332;51.954;20.118;2022-08-25T10:05:03;14.30;;;6.80;;
35847;SDS011;22332;51.954;20.118;2022-08-25T10:08:25;13.10;;;6.60;;
35847;SDS011;22332;51.954;20.118;2022-08-25T10:11:40;16.40;;;6.70;;
35847;SDS011;22332;51.954;20.118;2022-08-25T10:14:50;12.60;;;6.30;;
35847;SDS011;22332;51.954;20.118;2022-08-25T10:17:56;14.40;;;6.50;;
35847;SDS011;22332;51.954;20.118;2022-08-25T10:21:22;11.20;;;6.00;;
35847;SDS011;22332;51.954;20.118;2022-08-25T10:24:27;14.80;;;6.30;;
35847;SDS011;22332;51.954;20.118;2022-08-25T10:27:35;12.90;;;6.90;;
35847;SDS011;22332;51.954;20.118;2022-08-25T10:30:53;15.30;;;6.50;;
35847;SDS011;22332;51.954;20.118;2022-08-25T10:34:08;15.30;;;6.00;;
35847;SDS011;22332;51.954;20.118;2022-08-25T10:37:38;13.90;;;6.10;;
35847;SDS011;22332;51.954;20.118;2022-08-25T10:40:55;14.40;;;6.60;;
35847;SDS011;22332;51.954;20.118;2022-08-25T10:44:12;14.50;;;6.90;;
35847;SDS011;22332;51.954;20.118;2022-08-25T10:47:43;15.30;;;6.10;;
35847;SDS011;22332;51.954;20.118;2022-08-25T10:51:04;19.80;;;6.50;;
35847;SDS011;22332;51.954;20.118;2022-08-25T10:54:22;14.10;;;6.00;;
35847;SDS011;22332;51.954;20.118;2022-08-25T10:57:42;12.30;;;6.20;;
35847;SDS011;22332;51.954;20.118;2022-08-25T11:00:58;12.00;;;6.00;;
35847;SDS011;22332;51.954;20.118;2022-08-25T11:04:11;15.20;;;6.40;;
35847;SDS011;22332;51.954;20.118;2022-08-25T11:07:24;14.10;;;6.40;;
35847;SDS011;22332;51.954;20.118;2022-08-25T11:10:36;14.50;;;6.40;;
35847;SDS011;22332;51.954;20.118;2022-08-25T11:13:49;16.00;;;6.70;;
35847;SDS011;22332;51.954;20.118;2022-08-25T11:16:58;12.90;;;6.70;;
35847;SDS011;22332;51.954;20.118;2022-08-25T11:20:08;18.00;;;6.70;;
35847;SDS011;22332;51.954;20.118;2022-08-25T11:23:20;14.10;;;6.70;;
35847;SDS011;22332;51.954;20.118;2022-08-25T11:26:29;18.80;;;6.50;;
35847;SDS011;22332;51.954;20.118;2022-08-25T11:29:38;15.20;;;6.90;;
35847;SDS011;22332;51.954;20.118;2022-08-25T11:32:57;13.50;;;6.90;;
35847;SDS011;22332;51.954;20.118;2022-08-25T11:36:04;13.10;;;6.20;;
35847;SDS011;22332;51.954;20.118;2022-08-25T11:39:20;15.50;;;6.60;;
35847;SDS011;22332;51.954;20.118;2022-08-25T11:42:39;12.20;;;6.60;;
35847;SDS011;22332;51.954;20.118;2022-08-25T11:46:00;12.70;;;6.50;;
35847;SDS011;22332;51.954;20.118;2022-08-25T11:49:31;15.50;;;6.50;;
35847;SDS011;22332;51.954;20.118;2022-08-25T11:52:50;11.80;;;6.00;;
35847;SDS011;22332;51.954;20.118;2022-08-25T11:55:58;13.20;;;6.30;;
35847;SDS011;22332;51.954;20.118;2022-08-25T11:59:07;11.30;;;6.30;;
35847;SDS011;22332;51.954;20.118;2022-08-25T12:05:50;13.50;;;6.60;;
35847;SDS011;22332;51.954;20.118;2022-08-25T12:09:18;13.10;;;6.10;;
35847;SDS011;22332;51.954;20.118;2022-08-25T12:12:28;12.00;;;5.60;;
35847;SDS011;22332;51.954;20.118;2022-08-25T12:15:53;14.30;;;5.30;;
35847;SDS011;22332;51.954;20.118;2022-08-25T12:26:00;9.90;;;5.00;;
35847;SDS011;22332;51.954;20.118;2022-08-25T12:29:12;11.60;;;4.70;;
35847;SDS011;22332;51.954;20.118;2022-08-25T12:32:27;7.60;;;4.80;;
35847;SDS011;22332;51.954;20.118;2022-08-25T12:38:56;9.00;;;4.10;;
35847;SDS011;22332;51.954;20.118;2022-08-25T12:42:22;7.10;;;3.70;;
35847;SDS011;22332;51.954;20.118;2022-08-25T12:45:35;12.60;;;4.50;;
35847;SDS011;22332;51.954;20.118;2022-08-25T12:48:54;8.40;;;4.50;;
35847;SDS011;22332;51.954;20.118;2022-08-25T12:52:00;12.90;;;4.60;;
35847;SDS011;22332;51.954;20.118;2022-08-25T12:55:10;10.70;;;4.20;;
35847;SDS011;22332;51.954;20.118;2022-08-25T12:58:16;11.50;;;4.40;;
35847;SDS011;22332;51.954;20.118;2022-08-25T13:01:24;11.20;;;4.10;;
35847;SDS011;22332;51.954;20.118;2022-08-25T13:04:49;8.90;;;3.50;;
35847;SDS011;22332;51.954;20.118;2022-08-25T13:08:13;14.10;;;4.10;;
35847;SDS011;22332;51.954;20.118;2022-08-25T13:11:34;5.60;;;3.10;;
35847;SDS011;22332;51.954;20.118;2022-08-25T13:14:45;9.60;;;3.30;;
35847;SDS011;22332;51.954;20.118;2022-08-25T13:18:10;7.20;;;3.20;;
35847;SDS011;22332;51.954;20.118;2022-08-25T13:21:19;9.90;;;3.50;;
35847;SDS011;22332;51.954;20.118;2022-08-25T13:24:28;8.70;;;3.10;;
35847;SDS011;22332;51.954;20.118;2022-08-25T13:27:36;6.10;;;3.00;;
35847;SDS011;22332;51.954;20.118;2022-08-25T13:30:41;8.00;;;3.00;;
35847;SDS011;22332;51.954;20.118;2022-08-25T13:33:50;6.50;;;2.80;;
35847;SDS011;22332;51.954;20.118;2022-08-25T13:37:03;9.70;;;4.50;;
35847;SDS011;22332;51.954;20.118;2022-08-25T13:40:28;7.80;;;4.70;;
35847;SDS011;22332;51.954;20.118;2022-08-25T13:43:38;7.00;;;3.40;;
35847;SDS011;22332;51.954;20.118;2022-08-25T13:46:43;8.30;;;3.30;;
35847;SDS011;22332;51.954;20.118;2022-08-25T13:49:49;6.40;;;3.40;;
35847;SDS011;22332;51.954;20.118;2022-08-25T13:52:55;7.30;;;3.70;;
35847;SDS011;22332;51.954;20.118;2022-08-25T13:56:02;6.20;;;3.40;;
35847;SDS011;22332;51.954;20.118;2022-08-25T13:59:18;8.20;;;2.90;;
35847;SDS011;22332;51.954;20.118;2022-08-25T14:02:40;9.00;;;3.50;;
35847;SDS011;22332;51.954;20.118;2022-08-25T14:05:47;8.20;;;3.30;;
35847;SDS011;22332;51.954;20.118;2022-08-25T14:09:12;12.10;;;3.30;;
35847;SDS011;22332;51.954;20.118;2022-08-25T14:12:27;5.90;;;3.40;;
35847;SDS011;22332;51.954;20.118;2022-08-25T14:15:35;6.80;;;3.30;;
35847;SDS011;22332;51.954;20.118;2022-08-25T14:18:46;7.50;;;3.40;;
35847;SDS011;22332;51.954;20.118;2022-08-25T14:21:54;8.70;;;3.20;;
35847;SDS011;22332;51.954;20.118;2022-08-25T14:25:04;10.30;;;3.90;;
35847;SDS011;22332;51.954;20.118;2022-08-25T14:28:12;8.60;;;3.60;;
35847;SDS011;22332;51.954;20.118;2022-08-25T14:31:20;6.80;;;3.40;;
35847;SDS011;22332;51.954;20.118;2022-08-25T14:34:31;6.50;;;3.30;;
35847;SDS011;22332;51.954;20.118;2022-08-25T14:37:39;6.80;;;3.20;;
35847;SDS011;22332;51.954;20.118;2022-08-25T14:40:46;7.80;;;3.30;;
35847;SDS011;22332;51.954;20.118;2022-08-25T14:43:51;7.00;;;3.20;;
35847;SDS011;22332;51.954;20.118;2022-08-25T14:46:57;6.20;;;2.90;;
35847;SDS011;22332;51.954;20.118;2022-08-25T14:50:05;7.00;;;3.00;;
35847;SDS011;22332;51.954;20.118;2022-08-25T14:53:13;4.50;;;3.10;;
35847;SDS011;22332;51.954;20.118;2022-08-25T14:56:18;6.10;;;3.50;;
35847;SDS011;22332;51.954;20.118;2022-08-25T14:59:24;7.90;;;3.40;;
35847;SDS011;22332;51.954;20.118;2022-08-25T15:02:29;6.60;;;2.90;;
35847;SDS011;22332;51.954;20.118;2022-08-25T15:05:37;7.20;;;3.70;;
35847;SDS011;22332;51.954;20.118;2022-08-25T15:08:43;7.60;;;3.50;;
35847;SDS011;22332;51.954;20.118;2022-08-25T15:12:06;5.00;;;3.20;;
35847;SDS011;22332;51.954;20.118;2022-08-25T15:15:11;6.00;;;3.40;;
35847;SDS011;22332;51.954;20.118;2022-08-25T15:18:17;7.60;;;3.30;;
35847;SDS011;22332;51.954;20.118;2022-08-25T15:21:23;5.10;;;3.40;;
35847;SDS011;22332;51.954;20.118;2022-08-25T15:24:28;9.20;;;3.60;;
35847;SDS011;22332;51.954;20.118;2022-08-25T15:27:33;4.10;;;3.50;;
35847;SDS011;22332;51.954;20.118;2022-08-25T15:30:39;8.60;;;4.00;;
35847;SDS011;22332;51.954;20.118;2022-08-25T15:33:44;6.80;;;3.70;;
35847;SDS011;22332;51.954;20.118;2022-08-25T15:36:50;6.00;;;3.50;;
35847;SDS011;22332;51.954;20.118;2022-08-25T15:39:56;5.60;;;3.20;;
35847;SDS011;22332;51.954;20.118;2022-08-25T15:43:01;5.90;;;3.60;;
35847;SDS011;22332;51.954;20.118;2022-08-25T15:46:07;6.00;;;4.00;;
35847;SDS011;22332;51.954;20.118;2022-08-25T15:49:15;6.60;;;3.30;;
35847;SDS011;22332;51.954;20.118;2022-08-25T15:52:21;6.10;;;3.50;;
35847;SDS011;22332;51.954;20.118;2022-08-25T15:55:27;6.90;;;3.30;;
35847;SDS011;22332;51.954;20.118;2022-08-25T15:58:32;6.00;;;3.50;;
35847;SDS011;22332;51.954;20.118;2022-08-25T16:01:38;7.60;;;3.70;;
35847;SDS011;22332;51.954;20.118;2022-08-25T16:04:45;6.40;;;3.90;;
35847;SDS011;22332;51.954;20.118;2022-08-25T16:07:52;6.30;;;3.60;;
35847;SDS011;22332;51.954;20.118;2022-08-25T16:10:58;6.00;;;3.30;;
35847;SDS011;22332;51.954;20.118;2022-08-25T16:14:04;4.50;;;3.00;;
35847;SDS011;22332;51.954;20.118;2022-08-25T16:17:09;6.70;;;3.60;;
35847;SDS011;22332;51.954;20.118;2022-08-25T16:20:16;6.10;;;3.60;;
35847;SDS011;22332;51.954;20.118;2022-08-25T16:23:22;5.80;;;4.40;;
35847;SDS011;22332;51.954;20.118;2022-08-25T16:26:29;5.10;;;4.30;;
35847;SDS011;22332;51.954;20.118;2022-08-25T16:29:35;5.70;;;4.10;;
35847;SDS011;22332;51.954;20.118;2022-08-25T16:32:41;6.40;;;3.90;;
35847;SDS011;22332;51.954;20.118;2022-08-25T16:35:48;5.40;;;3.90;;
35847;SDS011;22332;51.954;20.118;2022-08-25T16:38:53;6.20;;;4.40;;
35847;SDS011;22332;51.954;20.118;2022-08-25T16:42:02;7.50;;;4.60;;
35847;SDS011;22332;51.954;20.118;2022-08-25T16:45:09;8.10;;;6.60;;
35847;SDS011;22332;51.954;20.118;2022-08-25T16:48:15;20.50;;;18.00;;
35847;SDS011;22332;51.954;20.118;2022-08-25T16:51:20;22.40;;;19.10;;
35847;SDS011;22332;51.954;20.118;2022-08-25T16:54:26;19.60;;;16.30;;
35847;SDS011;22332;51.954;20.118;2022-08-25T16:57:50;12.70;;;10.50;;
35847;SDS011;22332;51.954;20.118;2022-08-25T17:00:56;11.10;;;10.00;;
35847;SDS011;22332;51.954;20.118;2022-08-25T17:04:08;6.70;;;6.10;;
35847;SDS011;22332;51.954;20.118;2022-08-25T17:07:14;7.90;;;7.10;;
35847;SDS011;22332;51.954;20.118;2022-08-25T17:10:19;9.30;;;8.30;;
35847;SDS011;22332;51.954;20.118;2022-08-25T17:13:25;11.80;;;10.70;;
35847;SDS011;22332;51.954;20.118;2022-08-25T17:16:31;10.90;;;8.60;;
35847;SDS011;22332;51.954;20.118;2022-08-25T17:19:38;13.70;;;10.60;;
35847;SDS011;22332;51.954;20.118;2022-08-25T17:22:43;16.40;;;11.50;;
35847;SDS011;22332;51.954;20.118;2022-08-25T17:25:49;13.40;;;9.40;;
35847;SDS011;22332;51.954;20.118;2022-08-25T17:28:54;12.00;;;8.40;;
35847;SDS011;22332;51.954;20.118;2022-08-25T17:32:00;30.00;;;26.10;;
35847;SDS011;22332;51.954;20.118;2022-08-25T17:35:07;33.50;;;28.10;;
35847;SDS011;22332;51.954;20.118;2022-08-25T17:38:13;65.30;;;58.20;;
35847;SDS011;22332;51.954;20.118;2022-08-25T17:41:21;59.70;;;51.70;;
35847;SDS011;22332;51.954;20.118;2022-08-25T17:44:26;53.70;;;45.70;;
35847;SDS011;22332;51.954;20.118;2022-08-25T17:47:32;59.80;;;53.40;;
35847;SDS011;22332;51.954;20.118;2022-08-25T17:50:38;51.90;;;46.60;;
35847;SDS011;22332;51.954;20.118;2022-08-25T17:53:43;50.70;;;45.70;;
35847;SDS011;22332;51.954;20.118;2022-08-25T17:56:50;27.60;;;24.60;;
35847;SDS011;22332;51.954;20.118;2022-08-25T17:59:56;31.10;;;27.70;;
35847;SDS011;22332;51.954;20.118;2022-08-25T18:03:01;51.00;;;45.70;;
35847;SDS011;22332;51.954;20.118;2022-08-25T18:06:08;60.00;;;53.80;;
35847;SDS011;22332;51.954;20.118;2022-08-25T18:09:13;78.10;;;70.30;;
35847;SDS011;22332;51.954;20.118;2022-08-25T18:12:19;87.50;;;78.40;;
35847;SDS011;22332;51.954;20.118;2022-08-25T18:15:25;58.90;;;52.60;;
35847;SDS011;22332;51.954;20.118;2022-08-25T18:18:31;56.40;;;50.30;;
35847;SDS011;22332;51.954;20.118;2022-08-25T18:21:37;65.00;;;58.00;;
35847;SDS011;22332;51.954;20.118;2022-08-25T18:24:44;82.80;;;74.00;;
35847;SDS011;22332;51.954;20.118;2022-08-25T18:27:49;56.30;;;50.30;;
35847;SDS011;22332;51.954;20.118;2022-08-25T18:30:55;34.60;;;31.00;;
35847;SDS011;22332;51.954;20.118;2022-08-25T18:34:00;23.70;;;19.10;;
35847;SDS011;22332;51.954;20.118;2022-08-25T18:37:06;23.70;;;21.10;;
35847;SDS011;22332;51.954;20.118;2022-08-25T18:40:30;44.70;;;39.80;;
35847;SDS011;22332;51.954;20.118;2022-08-25T18:43:37;36.90;;;32.80;;
35847;SDS011;22332;51.954;20.118;2022-08-25T18:46:42;20.50;;;17.40;;
35847;SDS011;22332;51.954;20.118;2022-08-25T18:49:48;14.70;;;11.90;;
35847;SDS011;22332;51.954;20.118;2022-08-25T18:52:53;11.60;;;9.50;;